createdAt,value
2018-11-27T00:01:14.146Z,23.70
2018-11-27T00:02:18.149Z,25.20
2018-11-27T00:02:53.642Z,26.20
2018-11-27T00:03:59.642Z,24.30
2018-11-27T00:04:53.641Z,25.20
2018-11-27T00:07:29.363Z,24.30
2018-11-27T00:08:25.870Z,24.60
2018-11-27T00:09:25.875Z,23.90
2018-11-27T00:10:25.867Z,26.00
2018-11-27T00:11:47.369Z,24.20
2018-11-27T00:12:50.873Z,23.80
2018-11-27T00:13:26.367Z,25.90
2018-11-27T00:14:26.367Z,23.90
2018-11-27T00:16:58.085Z,25.70
2018-11-27T00:18:01.096Z,24.60
2018-11-27T00:18:58.095Z,26.80
2018-11-27T00:19:58.592Z,26.50
2018-11-27T00:20:57.807Z,25.00
2018-11-27T00:21:58.593Z,25.20
2018-11-27T00:23:04.026Z,28.90
2018-11-27T00:23:58.603Z,27.90
2018-11-27T00:24:59.098Z,28.30
2018-11-27T00:27:30.451Z,27.70
2018-11-27T00:28:33.952Z,26.10
2018-11-27T00:29:30.451Z,25.80
2018-11-27T00:30:30.950Z,27.00
2018-11-27T00:31:30.950Z,23.90
2018-11-27T00:32:30.957Z,24.70
2018-11-27T00:33:30.950Z,23.90
2018-11-27T00:34:34.949Z,22.00
2018-11-27T00:35:31.461Z,23.50
2018-11-27T00:36:31.456Z,23.20
2018-11-27T00:37:37.384Z,23.00
2018-11-27T00:38:52.950Z,23.80
2018-11-27T00:39:31.949Z,23.10
2018-11-27T00:40:35.958Z,22.30
2018-11-27T00:41:52.953Z,21.90
2018-11-27T00:42:32.451Z,20.40
2018-11-27T00:43:32.450Z,19.80
2018-11-27T00:44:32.450Z,21.90
2018-11-27T00:45:32.449Z,22.80
2018-11-27T00:46:35.949Z,20.50
2018-11-27T00:47:33.394Z,20.90
2018-11-27T00:48:32.959Z,21.90
2018-11-27T00:49:32.949Z,20.40
2018-11-27T00:50:32.947Z,19.60
2018-11-27T00:51:57.949Z,20.00
2018-11-27T00:52:33.454Z,20.50
2018-11-27T00:53:33.450Z,20.60
2018-11-27T00:54:33.448Z,20.70
2018-11-27T00:57:08.666Z,21.60
2018-11-27T01:02:14.945Z,19.80
2018-11-27T01:03:10.511Z,19.00
2018-11-27T01:04:12.452Z,19.80
2018-11-27T01:05:32.010Z,19.90
2018-11-27T01:06:11.950Z,21.00
2018-11-27T01:07:15.010Z,20.10
2018-11-27T01:08:13.445Z,17.20
2018-11-27T01:09:11.010Z,19.10
2018-11-27T01:11:42.012Z,18.80
2018-11-27T01:13:07.737Z,18.60
2018-11-27T01:13:56.745Z,18.80
2018-11-27T01:15:04.236Z,19.40
2018-11-27T01:15:43.239Z,19.40
2018-11-27T01:16:44.690Z,19.60
2018-11-27T01:17:43.235Z,19.30
2018-11-27T01:18:46.744Z,18.80
2018-11-27T01:19:43.736Z,18.50
2018-11-27T01:22:36.079Z,18.30
2018-11-27T01:23:15.088Z,18.30
2018-11-27T01:24:40.129Z,18.20
2018-11-27T01:25:36.594Z,17.80
2018-11-27T01:26:36.587Z,17.90
2018-11-27T01:27:15.587Z,16.00
2018-11-27T01:28:15.587Z,17.80
2018-11-27T01:29:40.589Z,17.30
2018-11-27T01:31:48.404Z,16.00
2018-11-27T01:32:49.394Z,15.60
2018-11-27T01:33:48.879Z,15.40
2018-11-27T01:34:50.945Z,16.00
2018-11-27T01:36:08.944Z,17.60
2018-11-27T01:37:08.944Z,16.80
2018-11-27T01:38:08.947Z,15.30
2018-11-27T01:39:09.445Z,14.70
2018-11-27T01:40:14.883Z,15.30
2018-11-27T01:40:48.444Z,15.40
2018-11-27T01:42:09.464Z,14.90
2018-11-27T01:42:48.455Z,15.00
2018-11-27T01:45:44.681Z,14.30
2018-11-27T01:46:41.681Z,13.90
2018-11-27T01:47:20.676Z,15.00
2018-11-27T01:48:41.127Z,14.00
2018-11-27T01:49:42.185Z,13.60
2018-11-27T01:51:56.909Z,13.70
2018-11-27T01:52:56.923Z,14.40
2018-11-27T01:53:56.927Z,13.60
2018-11-27T01:54:56.919Z,13.20
2018-11-27T01:57:31.070Z,13.80
2018-11-27T01:58:32.513Z,14.00
2018-11-27T01:59:31.071Z,13.10
2018-11-27T02:00:31.071Z,14.60
2018-11-27T02:01:35.072Z,14.60
2018-11-27T02:02:52.571Z,13.90
2018-11-27T02:03:31.571Z,14.50
2018-11-27T02:04:52.571Z,14.20
2018-11-27T02:05:32.070Z,14.50
2018-11-27T02:06:56.571Z,14.20
2018-11-27T02:07:32.070Z,14.90
2018-11-27T02:08:32.071Z,14.70
2018-11-27T02:09:32.574Z,14.30
2018-11-27T02:10:34.007Z,13.60
2018-11-27T02:11:32.570Z,14.70
2018-11-27T02:12:38.029Z,14.90
2018-11-27T02:15:04.251Z,14.10
2018-11-27T02:16:04.258Z,15.90
2018-11-27T02:17:04.262Z,14.00
2018-11-27T02:19:40.925Z,14.80
2018-11-27T02:20:39.991Z,15.00
2018-11-27T02:21:39.991Z,14.90
2018-11-27T02:22:40.507Z,14.30
2018-11-27T02:23:43.488Z,14.60
2018-11-27T02:24:40.495Z,15.30
2018-11-27T02:25:40.489Z,15.50
2018-11-27T02:26:40.991Z,14.40
2018-11-27T02:28:01.991Z,14.60
2018-11-27T02:31:51.139Z,14.50
2018-11-27T02:33:09.239Z,14.80
2018-11-27T02:33:52.208Z,14.20
2018-11-27T02:35:09.199Z,15.60
2018-11-27T02:36:09.706Z,16.70
2018-11-27T02:36:48.704Z,16.50
2018-11-27T02:37:48.703Z,15.70
2018-11-27T02:38:48.703Z,17.80
2018-11-27T02:39:52.213Z,15.70
2018-11-27T02:41:10.208Z,15.40
2018-11-27T02:41:50.721Z,13.70
2018-11-27T02:43:10.204Z,15.00
2018-11-27T02:45:45.803Z,14.90
2018-11-27T02:46:41.810Z,16.20
2018-11-27T02:47:20.811Z,15.40
2018-11-27T02:48:21.315Z,14.60
2018-11-27T02:49:21.312Z,16.10
2018-11-27T02:50:21.309Z,14.00
2018-11-27T02:55:58.742Z,15.20
2018-11-27T02:57:03.681Z,14.40
2018-11-27T02:57:58.741Z,15.70
2018-11-27T03:00:29.750Z,16.00
2018-11-27T03:01:30.481Z,15.10
2018-11-27T03:04:29.362Z,14.60
2018-11-27T03:05:05.430Z,16.60
2018-11-27T03:07:41.089Z,15.60
2018-11-27T03:08:58.155Z,16.20
2018-11-27T03:09:41.588Z,16.30
2018-11-27T03:10:43.655Z,17.10
2018-11-27T03:11:51.654Z,16.40
2018-11-27T03:12:55.655Z,15.50
2018-11-27T03:13:38.595Z,16.30
2018-11-27T03:14:59.154Z,16.50
2018-11-27T03:15:38.164Z,18.70
2018-11-27T03:18:16.583Z,19.10
2018-11-27T03:19:09.641Z,18.20
2018-11-27T03:20:09.640Z,18.60
2018-11-27T03:21:10.144Z,18.40
2018-11-27T03:22:10.140Z,19.20
2018-11-27T03:24:46.540Z,17.50
2018-11-27T03:25:45.621Z,18.40
2018-11-27T03:28:20.352Z,18.90
2018-11-27T03:29:17.351Z,18.00
2018-11-27T03:30:17.466Z,19.30
2018-11-27T03:33:10.075Z,19.40
2018-11-27T03:33:53.081Z,18.20
2018-11-27T03:34:58.517Z,21.00
2018-11-27T03:38:56.222Z,21.40
2018-11-27T03:39:52.229Z,20.40
2018-11-27T03:40:55.167Z,18.90
2018-11-27T03:44:59.367Z,20.20
2018-11-27T03:46:16.374Z,19.50
2018-11-27T03:46:55.380Z,19.10
2018-11-27T03:49:27.100Z,21.00
2018-11-27T03:55:26.681Z,21.20
2018-11-27T03:56:09.690Z,20.10
2018-11-27T03:57:05.691Z,20.00
2018-11-27T04:01:34.859Z,21.40
2018-11-27T04:02:10.375Z,19.80
2018-11-27T04:03:10.367Z,19.60
2018-11-27T04:04:11.823Z,21.50
2018-11-27T04:05:10.867Z,23.10
2018-11-27T04:06:12.324Z,22.50
2018-11-27T04:07:16.331Z,21.40
2018-11-27T04:08:10.866Z,22.20
2018-11-27T04:09:10.867Z,23.70
2018-11-27T04:10:11.366Z,21.10
2018-11-27T04:11:32.368Z,21.70
2018-11-27T04:12:11.366Z,22.40
2018-11-27T04:13:35.867Z,23.40
2018-11-27T04:14:11.867Z,21.80
2018-11-27T04:16:43.210Z,22.60
2018-11-27T04:17:43.218Z,21.70
2018-11-27T04:18:47.217Z,24.10
2018-11-27T04:21:35.937Z,25.00
2018-11-27T04:22:14.944Z,23.20
2018-11-27T04:24:50.671Z,22.00
2018-11-27T04:25:46.679Z,22.70
2018-11-27T04:26:46.670Z,23.10
2018-11-27T04:27:47.179Z,25.10
2018-11-27T04:29:08.173Z,24.40
2018-11-27T04:30:12.177Z,24.30
2018-11-27T04:30:47.171Z,23.30
2018-11-27T04:33:18.889Z,22.40
2018-11-27T04:34:18.898Z,22.30
2018-11-27T04:36:53.631Z,25.50
2018-11-27T04:37:55.568Z,24.20
2018-11-27T04:38:55.601Z,23.50
2018-11-27T04:40:15.135Z,24.40
2018-11-27T04:42:29.296Z,25.10
2018-11-27T04:43:29.302Z,25.30
2018-11-27T04:44:29.298Z,22.80
2018-11-27T04:45:50.798Z,23.30
2018-11-27T04:46:35.254Z,23.30
2018-11-27T04:47:29.805Z,26.30
2018-11-27T04:48:29.800Z,26.20
2018-11-27T04:49:50.798Z,25.90
2018-11-27T04:52:06.482Z,26.40
2018-11-27T04:53:01.546Z,25.90
2018-11-27T04:54:01.531Z,27.80
2018-11-27T04:55:02.031Z,26.40
2018-11-27T04:56:02.075Z,25.80
2018-11-27T04:57:02.029Z,26.70
2018-11-27T04:59:38.169Z,26.30
2018-11-27T05:00:37.620Z,28.80
2018-11-27T05:01:37.623Z,25.80
2018-11-27T05:04:13.343Z,26.20
2018-11-27T05:05:09.849Z,28.70
2018-11-27T05:06:09.848Z,26.60
2018-11-27T05:07:09.848Z,24.20
2018-11-27T05:13:08.760Z,25.60
2018-11-27T05:13:47.767Z,26.90
2018-11-27T05:15:14.701Z,26.30
2018-11-27T05:16:09.267Z,25.90
2018-11-27T05:18:19.622Z,25.20
2018-11-27T05:19:40.622Z,25.50
2018-11-27T05:20:23.628Z,26.10
2018-11-27T05:21:41.143Z,25.80
2018-11-27T05:22:20.124Z,25.50
2018-11-27T05:23:41.124Z,25.80
2018-11-27T05:24:20.123Z,26.00
2018-11-27T05:25:46.060Z,25.70
2018-11-27T05:26:20.624Z,26.20
2018-11-27T05:29:12.966Z,26.90
2018-11-27T05:29:51.975Z,25.90
2018-11-27T05:31:16.476Z,24.80
2018-11-27T05:31:52.479Z,25.10
2018-11-27T05:33:13.481Z,25.50
2018-11-27T05:33:52.475Z,26.10
2018-11-27T05:34:52.475Z,25.20
2018-11-27T05:35:57.909Z,26.10
2018-11-27T05:36:52.975Z,24.40
2018-11-27T05:38:13.976Z,24.60
2018-11-27T05:38:52.979Z,25.00
2018-11-27T05:39:53.470Z,25.50
2018-11-27T05:40:53.474Z,26.70
2018-11-27T05:43:28.174Z,23.50
2018-11-27T05:44:49.178Z,25.30
2018-11-27T05:45:28.178Z,24.60
2018-11-27T05:46:49.684Z,23.60
2018-11-27T05:47:32.180Z,25.60
2018-11-27T05:48:29.613Z,25.90
2018-11-27T05:49:28.679Z,24.10
2018-11-27T05:50:30.116Z,26.00
2018-11-27T05:51:31.613Z,24.20
2018-11-27T05:52:53.680Z,26.20
2018-11-27T05:53:29.180Z,24.00
2018-11-27T05:56:00.902Z,25.10
2018-11-27T05:57:00.902Z,23.40
2018-11-27T05:58:25.910Z,23.30
2018-11-27T05:59:22.402Z,23.90
2018-11-27T06:00:28.401Z,23.40
2018-11-27T06:01:16.835Z,23.60
2018-11-27T06:02:22.401Z,23.40
2018-11-27T06:03:26.403Z,22.90
2018-11-27T06:07:10.971Z,24.50
2018-11-27T06:08:35.977Z,22.00
2018-11-27T06:09:04.977Z,21.70
2018-11-27T06:11:36.698Z,22.80
2018-11-27T06:12:36.701Z,24.20
2018-11-27T06:13:40.197Z,24.50
2018-11-27T06:14:58.202Z,22.40
2018-11-27T06:15:37.214Z,22.80
2018-11-27T06:16:58.205Z,22.00
2018-11-27T06:17:37.206Z,21.90
2018-11-27T06:18:41.210Z,23.40
2018-11-27T06:19:37.702Z,23.30
2018-11-27T06:20:58.703Z,20.80
2018-11-27T06:21:37.702Z,20.80
2018-11-27T06:22:59.202Z,20.60
2018-11-27T06:23:38.259Z,21.60
2018-11-27T06:24:42.211Z,21.70
2018-11-27T06:25:38.202Z,22.80
2018-11-27T06:28:31.438Z,21.60
2018-11-27T06:29:32.373Z,21.00
2018-11-27T06:30:13.993Z,21.60
2018-11-27T06:31:10.995Z,22.30
2018-11-27T06:32:12.372Z,21.40
2018-11-27T06:33:10.940Z,23.20
2018-11-27T06:34:10.943Z,21.70
2018-11-27T06:35:35.938Z,22.20
2018-11-27T06:36:11.438Z,23.00
2018-11-27T06:37:11.439Z,24.60
2018-11-27T06:38:11.446Z,24.40
2018-11-27T06:39:11.438Z,23.30
2018-11-27T06:40:13.937Z,23.30
2018-11-27T06:41:14.938Z,23.80
2018-11-27T06:42:11.947Z,22.40
2018-11-27T06:43:32.933Z,26.00
2018-11-27T06:45:46.665Z,24.70
2018-11-27T06:48:20.059Z,22.50
2018-11-27T06:49:20.067Z,21.80
2018-11-27T06:50:20.076Z,22.20
2018-11-27T06:51:41.565Z,25.70
2018-11-27T06:54:18.185Z,24.80
2018-11-27T06:54:55.734Z,24.10
2018-11-27T06:55:55.740Z,24.00
2018-11-27T06:56:56.235Z,23.60
2018-11-27T06:58:01.165Z,24.40
2018-11-27T06:58:56.240Z,23.90
2018-11-27T06:59:56.252Z,25.80
2018-11-27T07:00:56.230Z,24.60
2018-11-27T07:02:04.205Z,25.80
2018-11-27T07:03:27.259Z,25.20
2018-11-27T07:03:56.735Z,25.10
2018-11-27T07:04:56.727Z,25.40
2018-11-27T07:09:18.362Z,26.30
2018-11-27T07:13:24.619Z,25.20
2018-11-27T07:14:07.685Z,27.80
2018-11-27T07:15:03.627Z,26.90
2018-11-27T07:16:03.632Z,25.40
2018-11-27T07:18:35.345Z,26.40
2018-11-27T07:19:38.857Z,26.20
2018-11-27T07:20:35.419Z,26.60
2018-11-27T07:21:58.861Z,28.90
2018-11-27T07:22:56.855Z,27.30
2018-11-27T07:25:10.714Z,27.30
2018-11-27T07:26:07.721Z,28.80
2018-11-27T07:27:07.721Z,26.50
2018-11-27T07:28:29.222Z,26.90
2018-11-27T07:31:04.080Z,26.70
2018-11-27T07:31:39.615Z,25.20
2018-11-27T07:33:00.574Z,26.80
2018-11-27T07:33:39.165Z,25.20
2018-11-27T07:36:15.881Z,26.70
2018-11-27T07:37:33.398Z,26.10
2018-11-27T07:39:43.882Z,26.50
2018-11-27T07:40:43.888Z,29.10
2018-11-27T07:41:47.377Z,27.70
2018-11-27T07:42:50.413Z,25.50
2018-11-27T07:44:05.379Z,26.70
2018-11-27T07:44:47.865Z,26.90
2018-11-27T07:47:19.103Z,25.10
2018-11-27T07:48:16.102Z,26.70
2018-11-27T07:49:16.097Z,26.70
2018-11-27T07:50:16.606Z,27.80
2018-11-27T07:52:51.949Z,25.30
2018-11-27T07:53:47.949Z,26.60
2018-11-27T07:54:47.950Z,25.50
2018-11-27T07:55:48.451Z,26.00
2018-11-27T07:56:48.460Z,27.20
2018-11-27T07:57:48.448Z,27.70
2018-11-27T07:58:51.965Z,27.40
2018-11-27T08:00:09.950Z,28.60
2018-11-27T08:01:15.949Z,26.70
2018-11-27T08:01:48.301Z,27.20
2018-11-27T08:02:54.954Z,28.60
2018-11-27T08:04:15.381Z,26.80
2018-11-27T08:06:35.860Z,27.00
2018-11-27T08:07:23.794Z,27.20
2018-11-27T08:08:43.752Z,28.90
2018-11-27T08:09:31.798Z,28.00
2018-11-27T08:10:42.798Z,25.80
2018-11-27T08:11:21.799Z,26.20
2018-11-27T08:12:36.296Z,27.60
2018-11-27T08:14:56.464Z,27.40
2018-11-27T08:15:55.671Z,28.10
2018-11-27T08:16:55.126Z,26.50
2018-11-27T08:19:25.346Z,27.60
2018-11-27T08:20:28.852Z,27.00
2018-11-27T08:21:25.352Z,29.00
2018-11-27T08:22:24.940Z,28.30
2018-11-27T08:24:56.449Z,28.50
2018-11-27T08:26:21.166Z,28.80
2018-11-27T08:26:57.174Z,27.80
2018-11-27T08:31:39.798Z,28.10
2018-11-27T08:32:21.809Z,26.60
2018-11-27T08:33:02.274Z,25.90
2018-11-27T08:35:32.493Z,27.30
2018-11-27T08:36:36.027Z,25.50
2018-11-27T08:37:32.509Z,28.00
2018-11-27T08:38:32.089Z,27.70
2018-11-27T08:39:53.152Z,26.00
2018-11-27T08:40:53.999Z,29.90
2018-11-27T08:41:58.460Z,26.20
2018-11-27T08:42:32.997Z,27.90
2018-11-27T08:43:56.499Z,26.30
2018-11-27T08:44:47.507Z,26.20
2018-11-27T08:45:39.498Z,26.10
2018-11-27T08:46:57.999Z,24.90
2018-11-27T08:47:33.097Z,26.60
2018-11-27T08:50:05.809Z,27.90
2018-11-27T08:51:28.846Z,24.80
2018-11-27T08:53:40.527Z,24.00
2018-11-27T08:54:40.542Z,25.70
2018-11-27T08:55:40.534Z,23.70
2018-11-27T08:57:16.034Z,23.20
2018-11-27T08:57:46.967Z,25.50
2018-11-27T08:58:40.370Z,26.70
2018-11-27T09:00:02.035Z,24.10
2018-11-27T09:00:41.037Z,25.90
2018-11-27T09:02:01.611Z,22.40
2018-11-27T09:02:41.534Z,25.30
2018-11-27T09:04:05.050Z,23.60
2018-11-27T09:06:13.023Z,22.70
2018-11-27T09:07:13.027Z,22.30
2018-11-27T09:08:13.028Z,22.20
2018-11-27T09:09:15.685Z,23.60
2018-11-27T09:10:12.773Z,22.70
2018-11-27T09:12:45.493Z,22.90
2018-11-27T09:13:59.500Z,23.50
2018-11-27T09:14:48.284Z,22.80
2018-11-27T09:17:17.260Z,23.30
2018-11-27T09:18:19.697Z,23.50
2018-11-27T09:19:17.260Z,24.70
2018-11-27T09:20:55.761Z,24.20
2018-11-27T09:21:38.763Z,24.20
2018-11-27T09:22:38.765Z,22.30
2018-11-27T09:23:41.696Z,25.20
2018-11-27T09:24:19.472Z,21.40
2018-11-27T09:25:42.773Z,21.70
2018-11-27T09:26:17.767Z,22.50
2018-11-27T09:27:18.261Z,23.90
2018-11-27T09:28:18.260Z,21.50
2018-11-27T09:29:17.597Z,20.60
2018-11-27T09:30:18.260Z,20.50
2018-11-27T09:31:23.216Z,21.00
2018-11-27T09:32:38.784Z,22.60
2018-11-27T09:33:39.766Z,22.50
2018-11-27T09:34:39.761Z,22.30
2018-11-27T09:35:24.761Z,22.30
2018-11-27T09:37:57.322Z,21.30
2018-11-27T09:38:55.858Z,22.60
2018-11-27T09:40:15.888Z,21.80
2018-11-27T09:40:54.122Z,23.00
2018-11-27T09:42:19.386Z,21.90
2018-11-27T09:42:54.888Z,22.50
2018-11-27T09:45:27.114Z,20.30
2018-11-27T09:46:29.115Z,23.50
2018-11-27T09:47:31.114Z,21.10
2018-11-27T09:48:41.114Z,22.30
2018-11-27T09:49:27.621Z,20.20
2018-11-27T09:50:28.048Z,23.40
2018-11-27T09:51:26.916Z,23.00
2018-11-27T09:52:27.620Z,22.20
2018-11-27T09:53:31.144Z,23.10
2018-11-27T09:54:49.114Z,23.40
2018-11-27T09:55:49.113Z,25.10
2018-11-27T09:56:49.113Z,25.40
2018-11-27T09:57:49.119Z,23.40
2018-11-27T09:58:59.610Z,23.80
2018-11-27T09:59:30.613Z,23.60
2018-11-27T10:00:28.612Z,22.60
2018-11-27T10:03:55.483Z,21.20
2018-11-27T10:04:51.256Z,21.70
2018-11-27T10:06:11.565Z,23.30
2018-11-27T10:06:51.247Z,20.30
2018-11-27T10:07:51.250Z,18.80
2018-11-27T10:09:23.692Z,21.30
2018-11-27T10:12:55.265Z,21.20
2018-11-27T10:14:19.773Z,21.00
2018-11-27T10:14:55.279Z,19.00
2018-11-27T10:15:55.773Z,18.60
2018-11-27T10:18:27.127Z,20.00
2018-11-27T10:19:30.125Z,19.30
2018-11-27T10:21:59.345Z,19.80
2018-11-27T10:22:59.353Z,19.20
2018-11-27T10:23:59.353Z,19.20
2018-11-27T10:25:03.357Z,18.50
2018-11-27T10:27:30.483Z,19.40
2018-11-27T10:28:32.259Z,16.80
2018-11-27T10:29:30.634Z,18.40
2018-11-27T10:30:58.204Z,18.60
2018-11-27T10:31:31.707Z,18.20
2018-11-27T10:32:31.703Z,19.80
2018-11-27T10:33:31.713Z,18.30
2018-11-27T10:34:31.170Z,18.10
2018-11-27T10:36:05.174Z,23.20
2018-11-27T10:36:32.204Z,18.90
2018-11-27T10:37:32.204Z,18.30
2018-11-27T10:38:32.218Z,18.60
2018-11-27T10:39:32.704Z,17.80
2018-11-27T10:40:32.709Z,18.20
2018-11-27T10:43:21.638Z,18.60
2018-11-27T10:45:41.614Z,18.20
2018-11-27T10:48:14.710Z,19.30
2018-11-27T10:49:16.898Z,19.00
2018-11-27T10:50:15.434Z,20.00
2018-11-27T10:51:17.931Z,19.00
2018-11-27T10:52:41.399Z,18.70
2018-11-27T10:53:17.383Z,19.20
2018-11-27T10:54:15.937Z,19.10
2018-11-27T10:55:15.931Z,19.40
2018-11-27T10:56:36.498Z,19.80
2018-11-27T10:57:20.430Z,19.40
2018-11-27T10:58:16.458Z,21.20
2018-11-27T10:59:16.430Z,21.10
2018-11-27T11:00:16.490Z,19.60
2018-11-27T11:01:38.391Z,21.10
2018-11-27T11:02:16.930Z,21.70
2018-11-27T11:03:42.448Z,20.80
2018-11-27T11:04:39.395Z,20.00
2018-11-27T11:05:16.938Z,19.80
2018-11-27T11:06:16.932Z,20.60
2018-11-27T11:08:58.149Z,21.20
2018-11-27T11:10:09.657Z,22.40
2018-11-27T11:12:21.261Z,23.10
2018-11-27T11:13:21.201Z,27.30
2018-11-27T11:14:45.775Z,22.50
2018-11-27T11:15:21.265Z,24.00
2018-11-27T11:16:20.740Z,22.10
2018-11-27T11:17:42.764Z,23.00
2018-11-27T11:18:56.769Z,22.00
2018-11-27T11:19:24.768Z,22.90
2018-11-27T11:20:21.764Z,23.00
2018-11-27T11:21:42.765Z,21.60
2018-11-27T11:22:22.265Z,23.50
2018-11-27T11:23:22.265Z,23.10
2018-11-27T11:24:27.236Z,21.50
2018-11-27T11:25:22.265Z,22.90
2018-11-27T11:26:43.763Z,22.80
2018-11-27T11:28:54.112Z,22.60
2018-11-27T11:29:57.620Z,21.20
2018-11-27T11:30:54.123Z,21.90
2018-11-27T11:32:00.623Z,21.40
2018-11-27T11:33:14.857Z,20.20
2018-11-27T11:33:54.621Z,20.80
2018-11-27T11:36:30.076Z,22.50
2018-11-27T11:37:30.084Z,22.40
2018-11-27T11:38:30.082Z,21.90
2018-11-27T11:42:36.141Z,21.90
2018-11-27T11:43:56.467Z,20.50
2018-11-27T11:44:37.120Z,23.70
2018-11-27T11:47:34.773Z,20.80
2018-11-27T11:48:28.841Z,21.40
2018-11-27T11:49:07.906Z,22.70
2018-11-27T11:50:28.406Z,21.10
2018-11-27T11:53:08.633Z,21.90
2018-11-27T11:53:40.634Z,21.00
2018-11-27T11:54:40.654Z,21.90
2018-11-27T11:55:40.648Z,22.20
2018-11-27T11:57:04.143Z,22.50
2018-11-27T12:01:09.248Z,22.30
2018-11-27T12:01:48.249Z,22.70
2018-11-27T12:03:09.314Z,21.50
2018-11-27T12:04:09.748Z,22.40
2018-11-27T12:04:52.748Z,20.40
2018-11-27T12:07:20.701Z,23.60
2018-11-27T12:08:20.031Z,20.60
2018-11-27T12:09:41.602Z,22.90
2018-11-27T12:10:44.339Z,21.60
2018-11-27T12:11:21.101Z,22.40
2018-11-27T12:12:21.101Z,21.70
2018-11-27T12:13:21.108Z,22.00
2018-11-27T12:14:21.601Z,22.90
2018-11-27T12:15:24.533Z,21.50
2018-11-27T12:16:24.050Z,21.70
2018-11-27T12:17:21.602Z,21.80
2018-11-27T12:18:21.611Z,22.80
2018-11-27T12:19:22.100Z,22.70
2018-11-27T12:20:22.100Z,23.20
2018-11-27T12:21:25.097Z,21.60
2018-11-27T12:22:22.101Z,21.50
2018-11-27T12:24:54.321Z,21.20
2018-11-27T12:25:54.329Z,25.10
2018-11-27T12:27:18.829Z,22.40
2018-11-27T12:27:54.833Z,21.50
2018-11-27T12:28:54.038Z,22.50
2018-11-27T12:29:54.829Z,22.00
2018-11-27T12:31:17.267Z,21.10
2018-11-27T12:31:58.842Z,22.50
2018-11-27T12:32:55.328Z,22.30
2018-11-27T12:34:17.261Z,25.00
2018-11-27T12:34:55.327Z,22.90
2018-11-27T12:35:55.415Z,21.10
2018-11-27T12:37:09.825Z,22.00
2018-11-27T12:37:58.829Z,23.70
2018-11-27T12:39:27.761Z,23.20
2018-11-27T12:39:55.826Z,21.60
2018-11-27T12:40:56.325Z,21.70
2018-11-27T12:42:02.261Z,21.60
2018-11-27T12:44:53.114Z,22.30
2018-11-27T12:45:32.131Z,23.90
2018-11-27T12:46:32.122Z,23.10
2018-11-27T12:47:55.623Z,21.30
2018-11-27T12:48:36.121Z,23.00
2018-11-27T12:49:32.628Z,24.50
2018-11-27T12:50:32.621Z,23.40
2018-11-27T12:51:54.124Z,21.20
2018-11-27T12:52:32.344Z,21.90
2018-11-27T12:53:37.143Z,22.10
2018-11-27T12:54:33.117Z,21.20
2018-11-27T12:55:33.621Z,20.80
2018-11-27T12:56:54.621Z,22.10
2018-11-27T12:57:35.054Z,21.10
2018-11-27T12:58:33.630Z,22.00
2018-11-27T12:59:42.092Z,21.80
2018-11-27T13:00:34.126Z,22.40
2018-11-27T13:01:36.124Z,21.30
2018-11-27T13:02:34.121Z,20.90
2018-11-27T13:03:34.120Z,21.70
2018-11-27T13:04:57.783Z,21.50
2018-11-27T13:05:55.623Z,21.10
2018-11-27T13:06:34.620Z,21.20
2018-11-27T13:09:05.383Z,20.80
2018-11-27T13:10:09.601Z,22.20
2018-11-27T13:11:27.095Z,21.00
2018-11-27T13:12:06.597Z,21.20
2018-11-27T13:13:29.601Z,20.40
2018-11-27T13:14:07.551Z,21.60
2018-11-27T13:15:06.600Z,21.40
2018-11-27T13:16:11.096Z,21.30
2018-11-27T13:17:06.189Z,21.30
2018-11-27T13:18:09.096Z,21.30
2018-11-27T13:19:07.097Z,21.00
2018-11-27T13:20:07.098Z,20.90
2018-11-27T13:21:07.093Z,20.90
2018-11-27T13:23:42.758Z,24.40
2018-11-27T13:24:42.316Z,21.90
2018-11-27T13:25:45.253Z,22.50
2018-11-27T13:28:18.037Z,22.20
2018-11-27T13:29:13.375Z,22.40
2018-11-27T13:30:14.040Z,21.10
2018-11-27T13:31:14.052Z,20.70
2018-11-27T13:32:16.010Z,21.50
2018-11-27T13:33:14.548Z,22.00
2018-11-27T13:34:18.038Z,22.80
2018-11-27T13:35:14.012Z,24.10
2018-11-27T13:36:15.049Z,23.00
2018-11-27T13:37:15.050Z,25.00
2018-11-27T13:38:15.041Z,23.90
2018-11-27T13:39:15.042Z,22.70
2018-11-27T13:40:41.975Z,22.90
2018-11-27T13:42:46.768Z,22.40
2018-11-27T13:43:46.775Z,24.50
2018-11-27T13:44:46.772Z,21.10
2018-11-27T13:45:56.825Z,22.80
2018-11-27T13:49:51.494Z,22.10
2018-11-27T13:50:55.494Z,22.50
2018-11-27T13:51:50.059Z,22.80
2018-11-27T13:54:21.783Z,24.40
2018-11-27T13:55:21.792Z,23.70
2018-11-27T13:56:25.299Z,20.90
2018-11-27T13:57:28.297Z,21.10
2018-11-27T13:58:22.288Z,21.70
2018-11-27T13:59:30.255Z,23.40
2018-11-27T14:00:23.244Z,22.50
2018-11-27T14:01:46.787Z,23.20
2018-11-27T14:02:45.224Z,24.60
2018-11-27T14:03:22.001Z,24.90
2018-11-27T14:04:43.787Z,24.30
2018-11-27T14:05:22.130Z,23.10
2018-11-27T14:06:22.786Z,22.00
2018-11-27T14:07:26.786Z,22.30
2018-11-27T14:08:23.314Z,22.10
2018-11-27T14:09:23.291Z,21.00
2018-11-27T14:10:23.287Z,21.60
2018-11-27T14:11:22.886Z,24.30
2018-11-27T14:12:26.786Z,22.70
2018-11-27T14:13:25.221Z,23.20
2018-11-27T14:14:23.849Z,22.20
2018-11-27T14:15:24.723Z,23.20
2018-11-27T14:16:46.736Z,22.50
2018-11-27T14:17:27.794Z,23.00
2018-11-27T14:18:23.625Z,22.60
2018-11-27T14:19:24.287Z,24.10
2018-11-27T14:20:24.284Z,24.30
2018-11-27T14:22:00.756Z,23.80
2018-11-27T14:22:49.290Z,24.10
2018-11-27T14:23:24.804Z,23.30
2018-11-27T14:24:24.785Z,23.00
2018-11-27T14:25:25.284Z,22.40
2018-11-27T14:26:26.718Z,23.40
2018-11-27T14:27:27.718Z,23.10
2018-11-27T14:28:29.285Z,24.00
2018-11-27T14:29:25.289Z,24.80
2018-11-27T14:30:25.784Z,23.80
2018-11-27T14:31:31.785Z,24.30
2018-11-27T14:34:00.020Z,23.90
2018-11-27T14:34:59.888Z,23.40
2018-11-27T14:35:57.272Z,22.90
2018-11-27T14:36:59.206Z,25.10
2018-11-27T14:38:20.775Z,23.90
2018-11-27T14:38:56.996Z,24.10
2018-11-27T14:40:01.034Z,24.40
2018-11-27T14:40:59.785Z,22.60
2018-11-27T14:41:57.769Z,24.50
2018-11-27T14:43:00.311Z,23.00
2018-11-27T14:44:04.272Z,21.80
2018-11-27T14:44:58.272Z,22.50
2018-11-27T14:46:21.778Z,21.70
2018-11-27T14:47:00.771Z,21.70
2018-11-27T14:47:58.781Z,23.50
2018-11-27T14:48:58.772Z,22.80
2018-11-27T14:50:03.991Z,22.80
2018-11-27T14:51:16.770Z,23.80
2018-11-27T14:51:59.270Z,22.60
2018-11-27T14:52:59.271Z,23.30
2018-11-27T14:53:59.344Z,22.60
2018-11-27T14:54:59.775Z,24.20
2018-11-27T14:55:58.862Z,24.00
2018-11-27T14:58:34.265Z,25.20
2018-11-27T14:59:38.779Z,23.70
2018-11-27T15:00:34.278Z,24.70
2018-11-27T15:01:34.771Z,23.50
2018-11-27T15:02:37.785Z,23.60
2018-11-27T15:03:34.772Z,25.60
2018-11-27T15:04:34.772Z,24.50
2018-11-27T15:05:58.289Z,22.90
2018-11-27T15:06:35.302Z,23.30
2018-11-27T15:07:37.272Z,25.40
2018-11-27T15:08:59.773Z,23.30
2018-11-27T15:09:34.862Z,21.80
2018-11-27T15:10:40.205Z,23.20
2018-11-27T15:11:35.771Z,23.00
2018-11-27T15:12:35.770Z,22.70
2018-11-27T15:13:36.271Z,22.30
2018-11-27T15:14:39.271Z,24.10
2018-11-27T15:15:36.268Z,26.40
2018-11-27T15:16:35.736Z,29.00
2018-11-27T15:19:28.957Z,24.10
2018-11-27T15:20:10.982Z,23.70
2018-11-27T15:21:08.031Z,22.50
2018-11-27T15:23:59.877Z,24.70
2018-11-27T15:25:00.633Z,26.20
2018-11-27T15:26:04.612Z,23.20
2018-11-27T15:27:01.202Z,25.50
2018-11-27T15:27:40.132Z,23.60
2018-11-27T15:28:41.107Z,26.10
2018-11-27T15:29:40.137Z,23.70
2018-11-27T15:32:36.296Z,25.60
2018-11-27T15:33:18.712Z,24.80
2018-11-27T15:34:15.301Z,23.90
2018-11-27T15:35:15.881Z,23.60
2018-11-27T15:36:19.302Z,25.30
2018-11-27T15:37:15.809Z,27.50
2018-11-27T15:38:15.800Z,26.40
2018-11-27T15:39:15.798Z,26.50
2018-11-27T15:40:18.735Z,25.80
2018-11-27T15:41:17.734Z,25.30
2018-11-27T15:43:56.951Z,24.00
2018-11-27T15:46:22.416Z,23.60
2018-11-27T15:47:46.923Z,23.00
2018-11-27T15:48:21.892Z,27.20
2018-11-27T15:49:43.930Z,25.00
2018-11-27T15:50:22.924Z,27.20
2018-11-27T15:51:22.921Z,27.80
2018-11-27T15:52:26.921Z,25.10
2018-11-27T15:53:23.419Z,24.40
2018-11-27T15:56:15.024Z,25.10
2018-11-27T15:58:50.748Z,24.40
2018-11-27T15:59:25.597Z,23.90
2018-11-27T16:00:26.252Z,25.10
2018-11-27T16:01:25.721Z,24.20
2018-11-27T16:07:40.077Z,26.90
2018-11-27T16:09:42.432Z,24.20
2018-11-27T16:10:36.438Z,23.70
2018-11-27T16:11:36.438Z,25.30